sensor_id;sensor_type;location;lat;lon;timestamp;pressure;altitude;pressure_sealevel;temperature;humidity
30873;BME280;17579;42.690;2.586;2023-02-12T00:01:12;98753.78;;;7.05;59.87
30873;BME280;17579;42.690;2.586;2023-02-12T00:03:39;98756.22;;;7.08;59.98
30873;BME280;17579;42.690;2.586;2023-02-12T00:06:05;98758.69;;;7.11;60.02
30873;BME280;17579;42.690;2.586;2023-02-12T00:08:31;98764.59;;;7.15;60.37
30873;BME280;17579;42.690;2.586;2023-02-12T00:10:57;98764.38;;;7.20;60.29
30873;BME280;17579;42.690;2.586;2023-02-12T00:13:22;98758.75;;;7.26;60.34
30873;BME280;17579;42.690;2.586;2023-02-12T00:15:48;98755.19;;;7.27;60.37
30873;BME280;17579;42.690;2.586;2023-02-12T00:18:14;98747.03;;;7.32;60.34
30873;BME280;17579;42.690;2.586;2023-02-12T00:20:40;98753.81;;;7.36;60.39
30873;BME280;17579;42.690;2.586;2023-02-12T00:23:06;98751.84;;;7.39;60.60
30873;BME280;17579;42.690;2.586;2023-02-12T00:25:32;98755.06;;;7.44;60.64
30873;BME280;17579;42.690;2.586;2023-02-12T00:27:58;98753.97;;;7.49;60.73
30873;BME280;17579;42.690;2.586;2023-02-12T00:30:24;98744.91;;;7.53;60.77
30873;BME280;17579;42.690;2.586;2023-02-12T00:32:50;98745.69;;;7.55;60.86
30873;BME280;17579;42.690;2.586;2023-02-12T00:35:16;98748.88;;;7.60;60.83
30873;BME280;17579;42.690;2.586;2023-02-12T00:37:41;98743.63;;;7.60;60.95
30873;BME280;17579;42.690;2.586;2023-02-12T00:40:07;98740.84;;;7.63;60.72
30873;BME280;17579;42.690;2.586;2023-02-12T00:42:33;98732.94;;;7.63;60.60
30873;BME280;17579;42.690;2.586;2023-02-12T00:44:59;98738.19;;;7.63;60.71
30873;BME280;17579;42.690;2.586;2023-02-12T00:47:24;98727.66;;;7.63;60.92
30873;BME280;17579;42.690;2.586;2023-02-12T00:49:50;98731.22;;;7.62;60.77
30873;BME280;17579;42.690;2.586;2023-02-12T00:52:15;98729.44;;;7.62;60.87
30873;BME280;17579;42.690;2.586;2023-02-12T00:54:41;98729.44;;;7.62;60.92
30873;BME280;17579;42.690;2.586;2023-02-12T00:57:07;98724.94;;;7.65;61.17
30873;BME280;17579;42.690;2.586;2023-02-12T00:59:32;98726.56;;;7.67;61.64
30873;BME280;17579;42.690;2.586;2023-02-12T01:02:00;98728.91;;;7.72;61.40
30873;BME280;17579;42.690;2.586;2023-02-12T01:04:26;98723.44;;;7.75;61.39
30873;BME280;17579;42.690;2.586;2023-02-12T01:06:52;98726.00;;;7.76;61.16
30873;BME280;17579;42.690;2.586;2023-02-12T01:09:17;98719.78;;;7.77;61.11
30873;BME280;17579;42.690;2.586;2023-02-12T01:11:43;98724.19;;;7.77;61.51
30873;BME280;17579;42.690;2.586;2023-02-12T01:14:09;98730.34;;;7.77;61.37
30873;BME280;17579;42.690;2.586;2023-02-12T01:16:34;98725.06;;;7.77;61.24
30873;BME280;17579;42.690;2.586;2023-02-12T01:19:02;98731.25;;;7.76;61.55
30873;BME280;17579;42.690;2.586;2023-02-12T01:21:31;98730.53;;;7.74;61.28
30873;BME280;17579;42.690;2.586;2023-02-12T01:23:57;98727.88;;;7.74;61.28
30873;BME280;17579;42.690;2.586;2023-02-12T01:26:24;98731.44;;;7.73;61.69
30873;BME280;17579;42.690;2.586;2023-02-12T01:28:52;98726.19;;;7.73;61.86
30873;BME280;17579;42.690;2.586;2023-02-12T01:31:21;98731.25;;;7.76;61.68
30873;BME280;17579;42.690;2.586;2023-02-12T01:33:48;98721.31;;;7.82;61.82
30873;BME280;17579;42.690;2.586;2023-02-12T01:36:14;98728.25;;;7.83;61.89
30873;BME280;17579;42.690;2.586;2023-02-12T01:38:40;98722.69;;;7.87;nan
30873;BME280;17579;42.690;2.586;2023-02-12T01:41:09;98717.38;;;7.89;62.09
30873;BME280;17579;42.690;2.586;2023-02-12T01:43:36;98722.44;;;7.92;61.80
30873;BME280;17579;42.690;2.586;2023-02-12T01:46:02;98718.31;;;7.88;61.99
30873;BME280;17579;42.690;2.586;2023-02-12T01:48:32;98725.44;;;7.86;61.88
30873;BME280;17579;42.690;2.586;2023-02-12T01:51:00;98721.88;;;7.87;61.63
30873;BME280;17579;42.690;2.586;2023-02-12T01:53:32;98720.25;;;7.84;61.66
30873;BME280;17579;42.690;2.586;2023-02-12T01:56:00;98712.34;;;7.84;61.83
30873;BME280;17579;42.690;2.586;2023-02-12T01:58:30;98722.88;;;7.84;62.07
30873;BME280;17579;42.690;2.586;2023-02-12T02:00:58;98725.44;;;7.86;62.07
30873;BME280;17579;42.690;2.586;2023-02-12T02:03:27;98725.34;;;7.87;62.06
30873;BME280;17579;42.690;2.586;2023-02-12T02:06:03;98726.50;;;7.83;62.02
30873;BME280;17579;42.690;2.586;2023-02-12T02:08:31;98719.41;;;7.84;62.22
30873;BME280;17579;42.690;2.586;2023-02-12T02:10:58;98715.84;;;7.85;62.30
30873;BME280;17579;42.690;2.586;2023-02-12T02:13:24;98719.41;;;7.84;62.23
30873;BME280;17579;42.690;2.586;2023-02-12T02:15:55;98717.81;;;7.81;62.41
30873;BME280;17579;42.690;2.586;2023-02-12T02:18:27;98718.75;;;7.80;62.50
30873;BME280;17579;42.690;2.586;2023-02-12T02:24:09;98708.84;;;7.69;62.29
30873;BME280;17579;42.690;2.586;2023-02-12T02:32:12;98701.06;;;7.68;62.50
30873;BME280;17579;42.690;2.586;2023-02-12T02:37:44;98692.94;;;7.56;62.52
30873;BME280;17579;42.690;2.586;2023-02-12T02:40:17;98687.84;;;7.53;62.70
30873;BME280;17579;42.690;2.586;2023-02-12T02:42:55;98692.34;;;7.51;62.84
30873;BME280;17579;42.690;2.586;2023-02-12T02:45:42;98694.97;;;7.51;62.99
30873;BME280;17579;42.690;2.586;2023-02-12T02:48:12;98691.31;;;7.54;63.10
30873;BME280;17579;42.690;2.586;2023-02-12T02:50:42;98683.72;;;7.49;63.18
30873;BME280;17579;42.690;2.586;2023-02-12T02:53:11;98683.97;;;7.44;63.37
30873;BME280;17579;42.690;2.586;2023-02-12T02:55:43;98683.31;;;7.41;63.21
30873;BME280;17579;42.690;2.586;2023-02-12T02:58:16;98678.03;;;7.41;63.45
30873;BME280;17579;42.690;2.586;2023-02-12T03:00:48;98685.00;;;7.42;63.18
30873;BME280;17579;42.690;2.586;2023-02-12T03:03:25;98677.09;;;7.42;63.17
30873;BME280;17579;42.690;2.586;2023-02-12T03:05:59;98674.47;;;7.42;63.37
30873;BME280;17579;42.690;2.586;2023-02-12T03:08:32;98677.84;;;7.44;63.28
30873;BME280;17579;42.690;2.586;2023-02-12T03:11:05;98674.28;;;7.45;63.54
30873;BME280;17579;42.690;2.586;2023-02-12T03:13:36;98674.28;;;7.45;63.38
30873;BME280;17579;42.690;2.586;2023-02-12T03:16:25;98671.25;;;7.37;63.03
30873;BME280;17579;42.690;2.586;2023-02-12T03:18:57;98660.47;;;7.41;63.61
30873;BME280;17579;42.690;2.586;2023-02-12T03:21:32;98667.41;;;7.42;63.37
30873;BME280;17579;42.690;2.586;2023-02-12T03:24:12;98659.59;;;7.41;63.73
30873;BME280;17579;42.690;2.586;2023-02-12T03:26:46;98651.16;;;7.36;63.57
30873;BME280;17579;42.690;2.586;2023-02-12T03:29:13;98652.81;;;7.37;63.53
30873;BME280;17579;42.690;2.586;2023-02-12T03:31:48;98649.81;;;7.28;63.31
30873;BME280;17579;42.690;2.586;2023-02-12T03:34:42;98650.84;;;7.26;63.30
30873;BME280;17579;42.690;2.586;2023-02-12T03:37:16;98641.56;;;7.35;63.42
30873;BME280;17579;42.690;2.586;2023-02-12T03:39:52;98650.38;;;7.34;63.47
30873;BME280;17579;42.690;2.586;2023-02-12T03:42:30;98641.66;;;7.33;63.61
30873;BME280;17579;42.690;2.586;2023-02-12T03:45:09;98641.75;;;7.32;63.29
30873;BME280;17579;42.690;2.586;2023-02-12T03:47:43;98639.03;;;7.33;63.54
30873;BME280;17579;42.690;2.586;2023-02-12T03:52:56;98645.03;;;7.35;63.71
30873;BME280;17579;42.690;2.586;2023-02-12T03:55:22;98644.28;;;7.33;63.97
30873;BME280;17579;42.690;2.586;2023-02-12T03:57:54;98648.03;;;7.29;63.34
30873;BME280;17579;42.690;2.586;2023-02-12T04:00:24;98648.97;;;7.28;63.75
30873;BME280;17579;42.690;2.586;2023-02-12T04:02:53;98649.03;;;7.26;63.84
30873;BME280;17579;42.690;2.586;2023-02-12T04:05:22;98643.97;;;7.23;63.66
30873;BME280;17579;42.690;2.586;2023-02-12T04:07:49;98634.19;;;7.25;63.77
30873;BME280;17579;42.690;2.586;2023-02-12T04:10:16;98649.22;;;7.23;63.73
30873;BME280;17579;42.690;2.586;2023-02-12T04:13:08;98647.16;;;7.14;63.31
30873;BME280;17579;42.690;2.586;2023-02-12T04:15:45;98646.00;;;7.18;63.36
30873;BME280;17579;42.690;2.586;2023-02-12T04:18:18;98644.34;;;7.17;63.08
30873;BME280;17579;42.690;2.586;2023-02-12T04:23:21;98648.81;;;7.15;63.75
30873;BME280;17579;42.690;2.586;2023-02-12T04:28:47;98649.88;;;7.13;63.60
30873;BME280;17579;42.690;2.586;2023-02-12T04:36:30;98655.50;;;7.21;64.12
30873;BME280;17579;42.690;2.586;2023-02-12T04:39:02;98651.97;;;7.22;64.11
30873;BME280;17579;42.690;2.586;2023-02-12T04:41:30;98653.66;;;7.23;64.11
30873;BME280;17579;42.690;2.586;2023-02-12T04:43:56;98659.66;;;7.25;64.47
30873;BME280;17579;42.690;2.586;2023-02-12T04:46:21;98655.25;;;7.25;64.00
30873;BME280;17579;42.690;2.586;2023-02-12T04:48:57;98657.31;;;7.20;64.07
30873;BME280;17579;42.690;2.586;2023-02-12T04:51:23;98657.88;;;7.25;64.26
30873;BME280;17579;42.690;2.586;2023-02-12T04:53:49;98658.84;;;7.24;63.97
30873;BME280;17579;42.690;2.586;2023-02-12T04:56:16;98669.63;;;7.20;64.03
30873;BME280;17579;42.690;2.586;2023-02-12T04:58:42;98669.78;;;7.17;63.92
30873;BME280;17579;42.690;2.586;2023-02-12T05:01:08;98669.13;;;7.13;64.12
30873;BME280;17579;42.690;2.586;2023-02-12T05:03:35;98670.06;;;7.12;64.16
30873;BME280;17579;42.690;2.586;2023-02-12T05:06:03;98671.84;;;7.11;64.00
30873;BME280;17579;42.690;2.586;2023-02-12T05:08:29;98670.97;;;7.11;64.21
30873;BME280;17579;42.690;2.586;2023-02-12T05:10:56;98670.97;;;7.11;64.16
30873;BME280;17579;42.690;2.586;2023-02-12T05:13:27;98671.94;;;7.10;63.81
30873;BME280;17579;42.690;2.586;2023-02-12T05:15:52;98677.28;;;7.08;64.16
30873;BME280;17579;42.690;2.586;2023-02-12T05:18:18;98672.97;;;7.07;64.02
30873;BME280;17579;42.690;2.586;2023-02-12T05:20:43;98669.41;;;7.08;64.28
30873;BME280;17579;42.690;2.586;2023-02-12T05:23:09;98672.03;;;7.08;64.37
30873;BME280;17579;42.690;2.586;2023-02-12T05:25:34;98671.94;;;7.10;64.11
30873;BME280;17579;42.690;2.586;2023-02-12T05:28:00;98673.69;;;7.09;64.40
30873;BME280;17579;42.690;2.586;2023-02-12T05:30:26;98677.28;;;7.08;64.45
30873;BME280;17579;42.690;2.586;2023-02-12T05:32:52;98671.94;;;7.10;64.43
30873;BME280;17579;42.690;2.586;2023-02-12T05:35:17;98679.75;;;7.11;64.07
30873;BME280;17579;42.690;2.586;2023-02-12T05:37:43;98675.22;;;7.14;64.24
30873;BME280;17579;42.690;2.586;2023-02-12T05:40:09;98681.44;;;7.13;64.14
30873;BME280;17579;42.690;2.586;2023-02-12T05:42:34;98678.88;;;7.11;64.22
30873;BME280;17579;42.690;2.586;2023-02-12T05:45:00;98673.56;;;7.13;63.96
30873;BME280;17579;42.690;2.586;2023-02-12T05:47:26;98682.19;;;7.15;64.38
30873;BME280;17579;42.690;2.586;2023-02-12T05:49:52;98673.38;;;7.16;64.44
30873;BME280;17579;42.690;2.586;2023-02-12T05:52:17;98680.22;;;7.18;64.55
30873;BME280;17579;42.690;2.586;2023-02-12T05:54:43;98679.38;;;7.18;64.33
30873;BME280;17579;42.690;2.586;2023-02-12T05:57:09;98671.41;;;7.19;64.29
30873;BME280;17579;42.690;2.586;2023-02-12T05:59:34;98675.72;;;7.20;64.48
30873;BME280;17579;42.690;2.586;2023-02-12T06:02:00;98664.19;;;7.23;64.30
30873;BME280;17579;42.690;2.586;2023-02-12T06:04:27;98665.94;;;7.22;64.18
30873;BME280;17579;42.690;2.586;2023-02-12T06:06:54;98664.19;;;7.23;64.30
30873;BME280;17579;42.690;2.586;2023-02-12T06:09:20;98670.38;;;7.22;64.37
30873;BME280;17579;42.690;2.586;2023-02-12T06:11:46;98664.44;;;7.18;63.97
30873;BME280;17579;42.690;2.586;2023-02-12T06:14:15;98662.94;;;7.14;63.94
30873;BME280;17579;42.690;2.586;2023-02-12T06:16:44;98670.97;;;7.11;64.36
30873;BME280;17579;42.690;2.586;2023-02-12T06:19:11;98671.84;;;7.11;64.07
30873;BME280;17579;42.690;2.586;2023-02-12T06:21:37;98679.75;;;7.11;64.16
30873;BME280;17579;42.690;2.586;2023-02-12T06:24:03;98669.22;;;7.11;63.88
30873;BME280;17579;42.690;2.586;2023-02-12T06:26:29;98664.88;;;7.10;63.89
30873;BME280;17579;42.690;2.586;2023-02-12T06:28:55;98665.91;;;7.08;63.98
30873;BME280;17579;42.690;2.586;2023-02-12T06:31:24;98670.31;;;7.07;64.00
30873;BME280;17579;42.690;2.586;2023-02-12T06:33:51;98666.84;;;7.07;63.70
30873;BME280;17579;42.690;2.586;2023-02-12T06:36:17;98668.81;;;7.03;63.78
30873;BME280;17579;42.690;2.586;2023-02-12T06:38:43;98667.97;;;7.03;63.70
30873;BME280;17579;42.690;2.586;2023-02-12T06:41:09;98674.25;;;7.00;63.81
30873;BME280;17579;42.690;2.586;2023-02-12T06:43:35;98672.72;;;6.96;63.75
30873;BME280;17579;42.690;2.586;2023-02-12T06:46:02;98671.09;;;6.93;63.80
30873;BME280;17579;42.690;2.586;2023-02-12T06:48:28;98673.91;;;6.90;63.67
30873;BME280;17579;42.690;2.586;2023-02-12T06:50:54;98680.19;;;6.88;63.54
30873;BME280;17579;42.690;2.586;2023-02-12T06:53:19;98672.66;;;6.82;63.65
30873;BME280;17579;42.690;2.586;2023-02-12T06:55:45;98679.03;;;6.78;63.34
30873;BME280;17579;42.690;2.586;2023-02-12T06:58:11;98677.75;;;6.69;63.41
30873;BME280;17579;42.690;2.586;2023-02-12T07:00:36;98674.69;;;6.61;63.18
30873;BME280;17579;42.690;2.586;2023-02-12T07:03:02;98675.03;;;6.54;63.16
30873;BME280;17579;42.690;2.586;2023-02-12T07:05:28;98681.47;;;6.49;63.21
30873;BME280;17579;42.690;2.586;2023-02-12T07:07:53;98688.94;;;6.40;63.14
30873;BME280;17579;42.690;2.586;2023-02-12T07:10:19;98683.09;;;6.35;62.91
30873;BME280;17579;42.690;2.586;2023-02-12T07:12:45;98688.59;;;6.31;63.11
30873;BME280;17579;42.690;2.586;2023-02-12T07:15:11;98688.84;;;6.26;63.01
30873;BME280;17579;42.690;2.586;2023-02-12T07:17:37;98682.91;;;6.22;63.35
30873;BME280;17579;42.690;2.586;2023-02-12T07:20:03;98689.16;;;6.20;63.04
30873;BME280;17579;42.690;2.586;2023-02-12T07:22:29;98694.50;;;6.18;63.14
30873;BME280;17579;42.690;2.586;2023-02-12T07:24:55;98695.59;;;6.14;62.79
30873;BME280;17579;42.690;2.586;2023-02-12T07:27:21;98700.19;;;6.11;63.22
30873;BME280;17579;42.690;2.586;2023-02-12T07:29:46;98699.31;;;6.10;62.91
30873;BME280;17579;42.690;2.586;2023-02-12T07:32:12;98703.81;;;6.08;63.05
30873;BME280;17579;42.690;2.586;2023-02-12T07:34:40;98702.94;;;6.07;63.29
30873;BME280;17579;42.690;2.586;2023-02-12T07:37:05;98702.03;;;6.09;63.24
30873;BME280;17579;42.690;2.586;2023-02-12T07:39:31;98706.53;;;6.06;63.18
30873;BME280;17579;42.690;2.586;2023-02-12T07:41:57;98701.09;;;6.10;63.22
30873;BME280;17579;42.690;2.586;2023-02-12T07:44:22;98712.28;;;6.13;63.41
30873;BME280;17579;42.690;2.586;2023-02-12T07:46:48;98713.06;;;6.15;63.42
30873;BME280;17579;42.690;2.586;2023-02-12T07:49:16;98715.59;;;6.17;63.58
30873;BME280;17579;42.690;2.586;2023-02-12T07:51:43;98716.19;;;6.22;63.36
30873;BME280;17579;42.690;2.586;2023-02-12T07:54:10;98730.03;;;6.26;63.32
30873;BME280;17579;42.690;2.586;2023-02-12T07:56:36;98728.06;;;6.29;63.61
30873;BME280;17579;42.690;2.586;2023-02-12T07:59:07;98728.94;;;6.30;63.87
30873;BME280;17579;42.690;2.586;2023-02-12T08:01:37;98733.88;;;6.36;64.22
30873;BME280;17579;42.690;2.586;2023-02-12T08:04:06;98736.00;;;6.45;64.45
30873;BME280;17579;42.690;2.586;2023-02-12T08:06:35;98734.66;;;6.54;64.16
30873;BME280;17579;42.690;2.586;2023-02-12T08:09:03;98736.19;;;6.58;64.30
30873;BME280;17579;42.690;2.586;2023-02-12T08:11:29;98739.41;;;6.63;64.88
30873;BME280;17579;42.690;2.586;2023-02-12T08:13:56;98741.03;;;6.66;64.95
30873;BME280;17579;42.690;2.586;2023-02-12T08:16:24;98745.38;;;6.67;65.12
30873;BME280;17579;42.690;2.586;2023-02-12T08:18:50;98748.56;;;6.72;65.19
30873;BME280;17579;42.690;2.586;2023-02-12T08:21:19;98745.69;;;6.76;65.52
30873;BME280;17579;42.690;2.586;2023-02-12T08:23:46;98752.31;;;6.84;65.36
30873;BME280;17579;42.690;2.586;2023-02-12T08:26:18;98753.84;;;6.88;65.01
30873;BME280;17579;42.690;2.586;2023-02-12T08:28:47;98755.44;;;6.90;65.50
30873;BME280;17579;42.690;2.586;2023-02-12T08:31:16;98757.91;;;6.93;65.46
30873;BME280;17579;42.690;2.586;2023-02-12T08:33:43;98755.97;;;6.97;65.36
30873;BME280;17579;42.690;2.586;2023-02-12T08:36:12;98762.84;;;7.00;65.44
30873;BME280;17579;42.690;2.586;2023-02-12T08:38:40;98765.13;;;7.06;65.41
30873;BME280;17579;42.690;2.586;2023-02-12T08:41:08;98763.25;;;7.08;65.48
30873;BME280;17579;42.690;2.586;2023-02-12T08:43:34;98763.94;;;7.11;65.38
30873;BME280;17579;42.690;2.586;2023-02-12T08:46:08;98757.66;;;7.14;65.22
30873;BME280;17579;42.690;2.586;2023-02-12T08:48:34;98769.38;;;7.24;65.22
30873;BME280;17579;42.690;2.586;2023-02-12T08:51:02;98764.84;;;7.26;65.20
30873;BME280;17579;42.690;2.586;2023-02-12T08:53:28;98775.97;;;7.32;65.27
30873;BME280;17579;42.690;2.586;2023-02-12T08:55:53;98775.03;;;7.33;64.97
30873;BME280;17579;42.690;2.586;2023-02-12T08:58:19;98767.91;;;7.35;65.03
30873;BME280;17579;42.690;2.586;2023-02-12T09:00:44;98772.06;;;7.39;65.36
30873;BME280;17579;42.690;2.586;2023-02-12T09:03:10;98775.25;;;7.44;65.31
30873;BME280;17579;42.690;2.586;2023-02-12T09:05:37;98777.56;;;7.50;65.17
30873;BME280;17579;42.690;2.586;2023-02-12T09:08:03;98771.00;;;7.57;65.20
30873;BME280;17579;42.690;2.586;2023-02-12T09:10:28;98769.94;;;7.60;65.15
30873;BME280;17579;42.690;2.586;2023-02-12T09:12:54;98773.28;;;7.63;64.86
30873;BME280;17579;42.690;2.586;2023-02-12T09:15:19;98778.34;;;7.67;65.01
30873;BME280;17579;42.690;2.586;2023-02-12T09:17:45;98776.31;;;7.72;64.81
30873;BME280;17579;42.690;2.586;2023-02-12T09:20:11;98778.00;;;7.73;64.95
30873;BME280;17579;42.690;2.586;2023-02-12T09:22:37;98775.19;;;7.76;64.92
30873;BME280;17579;42.690;2.586;2023-02-12T09:25:04;98777.38;;;7.84;64.84
30873;BME280;17579;42.690;2.586;2023-02-12T09:27:30;98773.44;;;7.91;64.66
30873;BME280;17579;42.690;2.586;2023-02-12T09:29:56;98773.94;;;7.97;64.62
30873;BME280;17579;42.690;2.586;2023-02-12T09:32:22;98771.75;;;8.04;64.62
30873;BME280;17579;42.690;2.586;2023-02-12T09:34:47;98773.38;;;8.07;64.55
30873;BME280;17579;42.690;2.586;2023-02-12T09:37:13;98778.53;;;8.08;64.31
30873;BME280;17579;42.690;2.586;2023-02-12T09:39:38;98774.97;;;8.09;64.18
30873;BME280;17579;42.690;2.586;2023-02-12T09:42:09;98768.78;;;8.10;64.24
30873;BME280;17579;42.690;2.586;2023-02-12T09:44:47;98766.97;;;8.11;63.82
30873;BME280;17579;42.690;2.586;2023-02-12T09:47:38;98766.16;;;8.10;64.30
30873;BME280;17579;42.690;2.586;2023-02-12T09:52:34;98761.13;;;8.20;63.79
30873;BME280;17579;42.690;2.586;2023-02-12T09:54:59;98766.34;;;8.22;63.92
30873;BME280;17579;42.690;2.586;2023-02-12T09:57:31;98766.25;;;8.23;63.67
30873;BME280;17579;42.690;2.586;2023-02-12T10:02:51;98775.47;;;8.30;63.49
30873;BME280;17579;42.690;2.586;2023-02-12T10:05:22;98772.75;;;8.32;63.69
30873;BME280;17579;42.690;2.586;2023-02-12T10:10:35;98776.34;;;8.45;64.06
30873;BME280;17579;42.690;2.586;2023-02-12T10:13:16;98768.16;;;8.64;63.95
30873;BME280;17579;42.690;2.586;2023-02-12T10:15:54;98768.41;;;8.89;64.13
30873;BME280;17579;42.690;2.586;2023-02-12T10:24:10;98763.09;;;9.58;63.01
30873;BME280;17579;42.690;2.586;2023-02-12T10:26:42;98768.59;;;9.67;62.55
30873;BME280;17579;42.690;2.586;2023-02-12T10:29:16;98769.16;;;9.73;62.39
30873;BME280;17579;42.690;2.586;2023-02-12T10:31:45;98764.94;;;9.83;62.63
30873;BME280;17579;42.690;2.586;2023-02-12T10:34:17;98762.22;;;9.97;62.06
30873;BME280;17579;42.690;2.586;2023-02-12T10:36:45;98757.06;;;10.09;61.87
30873;BME280;17579;42.690;2.586;2023-02-12T10:39:22;98754.31;;;10.10;61.46
30873;BME280;17579;42.690;2.586;2023-02-12T10:42:02;98753.44;;;10.10;61.19
30873;BME280;17579;42.690;2.586;2023-02-12T10:44:32;98746.78;;;10.17;61.44
30873;BME280;17579;42.690;2.586;2023-02-12T10:46:58;98743.06;;;10.19;60.39
30873;BME280;17579;42.690;2.586;2023-02-12T10:49:24;98741.59;;;10.15;59.84
30873;BME280;17579;42.690;2.586;2023-02-12T10:54:45;98742.47;;;10.16;60.37
30873;BME280;17579;42.690;2.586;2023-02-12T10:57:29;98733.75;;;10.27;60.52
30873;BME280;17579;42.690;2.586;2023-02-12T11:00:13;98727.41;;;10.29;58.85
30873;BME280;17579;42.690;2.586;2023-02-12T11:02:38;98734.19;;;10.33;59.07
30873;BME280;17579;42.690;2.586;2023-02-12T11:07:45;98730.50;;;10.49;58.76
30873;BME280;17579;42.690;2.586;2023-02-12T11:10:20;98717.91;;;10.52;58.54
30873;BME280;17579;42.690;2.586;2023-02-12T11:12:45;98715.78;;;10.57;57.60
30873;BME280;17579;42.690;2.586;2023-02-12T11:15:19;98714.19;;;10.55;57.59
30873;BME280;17579;42.690;2.586;2023-02-12T11:20:28;98720.81;;;10.73;58.07
30873;BME280;17579;42.690;2.586;2023-02-12T11:22:58;98712.44;;;10.80;55.88
30873;BME280;17579;42.690;2.586;2023-02-12T11:25:27;98712.66;;;10.77;56.46
30873;BME280;17579;42.690;2.586;2023-02-12T11:30:21;98699.72;;;10.85;55.13
30873;BME280;17579;42.690;2.586;2023-02-12T11:32:47;98697.38;;;10.80;55.28
30873;BME280;17579;42.690;2.586;2023-02-12T11:35:22;98690.91;;;10.84;55.79
30873;BME280;17579;42.690;2.586;2023-02-12T11:37:53;98688.75;;;11.02;55.98
30873;BME280;17579;42.690;2.586;2023-02-12T11:40:23;98694.53;;;11.07;55.55
30873;BME280;17579;42.690;2.586;2023-02-12T11:42:54;98687.94;;;11.13;53.95
30873;BME280;17579;42.690;2.586;2023-02-12T11:45:31;98686.88;;;11.16;54.84
30873;BME280;17579;42.690;2.586;2023-02-12T11:47:58;98684.78;;;11.32;54.66
30873;BME280;17579;42.690;2.586;2023-02-12T11:50:27;98673.38;;;11.43;53.66
30873;BME280;17579;42.690;2.586;2023-02-12T11:52:58;98675.44;;;11.39;54.15
30873;BME280;17579;42.690;2.586;2023-02-12T11:55:28;98668.81;;;11.45;54.29
30873;BME280;17579;42.690;2.586;2023-02-12T11:58:03;98669.41;;;11.49;54.46
30873;BME280;17579;42.690;2.586;2023-02-12T12:00:34;98668.81;;;11.45;54.58
30873;BME280;17579;42.690;2.586;2023-02-12T12:03:05;98666.78;;;11.49;54.44
30873;BME280;17579;42.690;2.586;2023-02-12T12:05:39;98666.81;;;11.60;54.94
30873;BME280;17579;42.690;2.586;2023-02-12T12:08:11;98653.81;;;11.68;54.42
30873;BME280;17579;42.690;2.586;2023-02-12T12:10:50;98656.09;;;11.73;54.22
30873;BME280;17579;42.690;2.586;2023-02-12T12:13:25;98654.06;;;11.65;54.40
30873;BME280;17579;42.690;2.586;2023-02-12T12:16:03;98655.25;;;11.61;54.62
30873;BME280;17579;42.690;2.586;2023-02-12T12:18:43;98653.94;;;11.67;54.66
30873;BME280;17579;42.690;2.586;2023-02-12T12:21:33;98656.00;;;11.74;54.44
30873;BME280;17579;42.690;2.586;2023-02-12T12:24:02;98652.63;;;11.84;54.10
30873;BME280;17579;42.690;2.586;2023-02-12T12:26:32;98646.25;;;11.86;53.34
30873;BME280;17579;42.690;2.586;2023-02-12T12:29:05;98653.59;;;11.83;53.75
30873;BME280;17579;42.690;2.586;2023-02-12T12:31:38;98646.75;;;11.91;54.00
30873;BME280;17579;42.690;2.586;2023-02-12T12:34:11;98649.88;;;11.96;53.74
30873;BME280;17579;42.690;2.586;2023-02-12T12:39:52;98642.91;;;11.95;53.25
30873;BME280;17579;42.690;2.586;2023-02-12T12:47:43;98644.47;;;11.98;53.72
30873;BME280;17579;42.690;2.586;2023-02-12T12:50:20;98651.72;;;12.19;52.66
30873;BME280;17579;42.690;2.586;2023-02-12T12:57:57;98643.75;;;12.07;52.53
30873;BME280;17579;42.690;2.586;2023-02-12T13:00:52;98640.63;;;12.13;53.12
30873;BME280;17579;42.690;2.586;2023-02-12T13:03:47;98630.13;;;12.23;52.65
30873;BME280;17579;42.690;2.586;2023-02-12T13:09:07;98626.84;;;12.31;51.98
30873;BME280;17579;42.690;2.586;2023-02-12T13:14:47;98616.25;;;12.31;51.92
30873;BME280;17579;42.690;2.586;2023-02-12T13:20:30;98621.81;;;12.28;51.94
30873;BME280;17579;42.690;2.586;2023-02-12T13:23:04;98609.03;;;12.33;51.84
30873;BME280;17579;42.690;2.586;2023-02-12T13:25:42;98612.13;;;12.38;52.11
30873;BME280;17579;42.690;2.586;2023-02-12T13:28:16;98607.94;;;12.47;51.53
30873;BME280;17579;42.690;2.586;2023-02-12T13:30:48;98607.94;;;12.47;51.36
30873;BME280;17579;42.690;2.586;2023-02-12T13:33:17;98592.97;;;12.46;51.03
30873;BME280;17579;42.690;2.586;2023-02-12T13:35:47;98598.59;;;12.53;51.56
30873;BME280;17579;42.690;2.586;2023-02-12T13:38:20;98595.63;;;12.46;51.54
30873;BME280;17579;42.690;2.586;2023-02-12T13:40:47;98589.56;;;12.44;51.78
30873;BME280;17579;42.690;2.586;2023-02-12T13:43:30;98587.91;;;12.43;51.23
30873;BME280;17579;42.690;2.586;2023-02-12T13:46:10;98588.97;;;12.52;50.68
30873;BME280;17579;42.690;2.586;2023-02-12T13:54:21;98583.97;;;12.58;51.63
30873;BME280;17579;42.690;2.586;2023-02-12T13:56:52;98587.00;;;12.65;50.28
30873;BME280;17579;42.690;2.586;2023-02-12T14:01:47;98575.41;;;12.66;50.80
30873;BME280;17579;42.690;2.586;2023-02-12T14:04:34;98577.81;;;12.69;50.81
30873;BME280;17579;42.690;2.586;2023-02-12T14:07:06;98577.03;;;12.78;50.56
30873;BME280;17579;42.690;2.586;2023-02-12T14:10:02;98585.13;;;12.77;50.50
30873;BME280;17579;42.690;2.586;2023-02-12T14:12:33;98573.78;;;12.86;50.17
30873;BME280;17579;42.690;2.586;2023-02-12T14:15:05;98577.25;;;12.87;49.50
30873;BME280;17579;42.690;2.586;2023-02-12T14:17:41;98577.16;;;12.77;50.68
30873;BME280;17579;42.690;2.586;2023-02-12T14:23:03;98577.53;;;12.83;51.16
30873;BME280;17579;42.690;2.586;2023-02-12T14:25:45;98570.47;;;12.94;50.71
30873;BME280;17579;42.690;2.586;2023-02-12T14:28:21;98574.44;;;12.99;50.61
30873;BME280;17579;42.690;2.586;2023-02-12T14:31:17;98578.13;;;13.08;50.75
30873;BME280;17579;42.690;2.586;2023-02-12T14:33:46;98571.72;;;13.32;49.84
30873;BME280;17579;42.690;2.586;2023-02-12T14:36:16;98564.28;;;13.47;49.00
30873;BME280;17579;42.690;2.586;2023-02-12T14:39:01;98576.47;;;13.49;49.52
30873;BME280;17579;42.690;2.586;2023-02-12T14:41:31;98574.03;;;13.67;48.33
30873;BME280;17579;42.690;2.586;2023-02-12T14:49:39;98578.19;;;13.60;48.62